Terminal Aerodrome Forecast
Issued by NWS New Orleans/Baton Rouge, LA

Home | Current Version | Previous Version | Text Only | Print | Product List | Glossary On
Versions: 1 2 3 4 5 6 7 8 9 10 11 12 13 14 15 16 17 18 19 20 21 22 23 24 25 26
000
FTUS44 KLIX 271123
TAFBTR
TAF
KBTR 271123Z 2712/2812 VRB03KT 4SM BR SCT007 BKN025
     FM271500 17009KT P6SM VCSH SCT025 BKN070
     FM271800 19012KT P6SM VCTS SCT030CB BKN250
     FM272300 20009KT P6SM SCT070
     FM280600 18005KT 5SM BR BKN008
     FM280900 VRB03KT 2SM BR BKN008=

USA.gov is the U.S. government's official web portal to all federal, state and local government web resources and services.